sensor_id;sensor_type;location;lat;lon;timestamp;pressure;altitude;pressure_sealevel;temperature;humidity
43161;BME280;40968;52.342;5.528;2024-02-21T00:01:21;102072.13;;;8.62;90.06
43161;BME280;40968;52.342;5.528;2024-02-21T00:03:48;102062.88;;;8.51;90.09
43161;BME280;40968;52.342;5.528;2024-02-21T00:06:15;102038.34;;;8.41;90.05
43161;BME280;40968;52.342;5.528;2024-02-21T00:08:42;101930.28;;;7.70;90.09
43161;BME280;40968;52.342;5.528;2024-02-21T00:11:09;101693.31;;;6.21;90.18
43161;BME280;40968;52.342;5.528;2024-02-21T00:13:36;102044.25;;;8.28;90.18
43161;BME280;40968;52.342;5.528;2024-02-21T00:16:03;102102.56;;;8.79;90.14
43161;BME280;40968;52.342;5.528;2024-02-21T00:18:29;102004.53;;;8.21;90.42
43161;BME280;40968;52.342;5.528;2024-02-21T00:20:56;102052.28;;;8.49;90.27
43161;BME280;40968;52.342;5.528;2024-02-21T00:23:22;102100.59;;;8.83;90.35
43161;BME280;40968;52.342;5.528;2024-02-21T00:25:50;102090.78;;;8.83;90.33
43161;BME280;40968;52.342;5.528;2024-02-21T00:28:17;101875.63;;;7.60;90.26
43161;BME280;40968;52.342;5.528;2024-02-21T00:30:44;101993.88;;;8.21;90.32
43161;BME280;40968;52.342;5.528;2024-02-21T00:33:10;101866.41;;;7.46;90.36
43161;BME280;40968;52.342;5.528;2024-02-21T00:35:37;102055.38;;;8.59;90.44
43161;BME280;40968;52.342;5.528;2024-02-21T00:38:03;102089.03;;;8.82;90.63
43161;BME280;40968;52.342;5.528;2024-02-21T00:40:30;102009.25;;;8.35;90.61
43161;BME280;40968;52.342;5.528;2024-02-21T00:42:58;101971.09;;;8.12;90.64
43161;BME280;40968;52.342;5.528;2024-02-21T00:45:24;102090.78;;;8.83;90.95
43161;BME280;40968;52.342;5.528;2024-02-21T00:47:51;102050.47;;;8.69;91.02
43161;BME280;40968;52.342;5.528;2024-02-21T00:50:17;101921.00;;;7.79;90.93
43161;BME280;40968;52.342;5.528;2024-02-21T00:52:44;102076.63;;;8.81;91.12
43161;BME280;40968;52.342;5.528;2024-02-21T00:55:10;102072.28;;;8.78;91.05
43161;BME280;40968;52.342;5.528;2024-02-21T00:57:37;101954.16;;;8.13;90.95
43161;BME280;40968;52.342;5.528;2024-02-21T01:00:07;101836.47;;;7.40;91.09
43161;BME280;40968;52.342;5.528;2024-02-21T01:02:34;101846.16;;;7.42;91.22
43161;BME280;40968;52.342;5.528;2024-02-21T01:05:02;101988.31;;;8.25;91.46
43161;BME280;40968;52.342;5.528;2024-02-21T01:07:28;101961.66;;;8.05;91.42
43161;BME280;40968;52.342;5.528;2024-02-21T01:09:55;102021.66;;;8.36;91.47
43161;BME280;40968;52.342;5.528;2024-02-21T01:12:22;102073.56;;;8.70;91.80
43161;BME280;40968;52.342;5.528;2024-02-21T01:14:48;101867.28;;;7.47;91.61
43161;BME280;40968;52.342;5.528;2024-02-21T01:17:17;102078.91;;;8.70;91.97
43161;BME280;40968;52.342;5.528;2024-02-21T01:19:45;102082.56;;;8.69;91.67
43161;BME280;40968;52.342;5.528;2024-02-21T01:22:12;101999.13;;;8.22;91.99
43161;BME280;40968;52.342;5.528;2024-02-21T01:24:40;101765.91;;;6.88;91.74
43161;BME280;40968;52.342;5.528;2024-02-21T01:27:06;101993.50;;;8.28;91.78
43161;BME280;40968;52.342;5.528;2024-02-21T01:29:33;101832.22;;;7.36;91.78
43161;BME280;40968;52.342;5.528;2024-02-21T01:31:59;101970.09;;;8.14;91.83
43161;BME280;40968;52.342;5.528;2024-02-21T01:34:27;102044.97;;;8.72;92.07
43161;BME280;40968;52.342;5.528;2024-02-21T01:36:54;101775.47;;;7.13;91.78
43161;BME280;40968;52.342;5.528;2024-02-21T01:39:20;102042.22;;;8.73;91.94
43161;BME280;40968;52.342;5.528;2024-02-21T01:41:47;102010.88;;;8.58;91.98
43161;BME280;40968;52.342;5.528;2024-02-21T01:44:14;102035.94;;;8.74;91.93
43161;BME280;40968;52.342;5.528;2024-02-21T01:46:40;102022.66;;;8.73;91.93
43161;BME280;40968;52.342;5.528;2024-02-21T01:49:07;101971.16;;;8.50;91.92
43161;BME280;40968;52.342;5.528;2024-02-21T01:51:36;101748.94;;;7.10;91.83
43161;BME280;40968;52.342;5.528;2024-02-21T01:54:03;101964.50;;;8.40;92.07
43161;BME280;40968;52.342;5.528;2024-02-21T01:56:29;101781.34;;;7.40;91.87
43161;BME280;40968;52.342;5.528;2024-02-21T01:58:57;101985.75;;;8.62;91.94
43161;BME280;40968;52.342;5.528;2024-02-21T02:01:23;101927.66;;;8.27;92.09
43161;BME280;40968;52.342;5.528;2024-02-21T02:03:51;102003.94;;;8.73;92.28
43161;BME280;40968;52.342;5.528;2024-02-21T02:06:18;102002.13;;;8.73;91.94
43161;BME280;40968;52.342;5.528;2024-02-21T02:08:46;101909.66;;;8.13;92.00
43161;BME280;40968;52.342;5.528;2024-02-21T02:11:13;101920.75;;;8.23;92.23
43161;BME280;40968;52.342;5.528;2024-02-21T02:13:39;102012.75;;;8.75;92.16
43161;BME280;40968;52.342;5.528;2024-02-21T02:16:06;101938.72;;;8.39;92.37
43161;BME280;40968;52.342;5.528;2024-02-21T02:18:33;101932.16;;;8.27;92.12
43161;BME280;40968;52.342;5.528;2024-02-21T02:20:59;101900.19;;;8.06;92.19
43161;BME280;40968;52.342;5.528;2024-02-21T02:23:27;101787.28;;;7.47;92.22
43161;BME280;40968;52.342;5.528;2024-02-21T02:25:54;101783.22;;;7.38;92.26
43161;BME280;40968;52.342;5.528;2024-02-21T02:28:21;101994.03;;;8.75;92.64
43161;BME280;40968;52.342;5.528;2024-02-21T02:30:48;101960.34;;;8.53;92.43
43161;BME280;40968;52.342;5.528;2024-02-21T02:33:16;101961.91;;;8.57;92.42
43161;BME280;40968;52.342;5.528;2024-02-21T02:35:43;101994.84;;;8.77;92.38
43161;BME280;40968;52.342;5.528;2024-02-21T02:38:10;101986.81;;;8.77;92.42
43161;BME280;40968;52.342;5.528;2024-02-21T02:40:40;101977.06;;;8.76;92.44
43161;BME280;40968;52.342;5.528;2024-02-21T02:43:07;101920.03;;;8.39;92.49
43161;BME280;40968;52.342;5.528;2024-02-21T02:45:33;101873.97;;;8.14;92.51
43161;BME280;40968;52.342;5.528;2024-02-21T02:48:00;101803.56;;;7.79;92.37
43161;BME280;40968;52.342;5.528;2024-02-21T02:50:27;101984.94;;;8.79;92.75
43161;BME280;40968;52.342;5.528;2024-02-21T02:52:54;101902.91;;;8.43;92.69
43161;BME280;40968;52.342;5.528;2024-02-21T02:55:21;101958.25;;;8.77;92.78
43161;BME280;40968;52.342;5.528;2024-02-21T02:57:49;101720.94;;;7.39;92.51
43161;BME280;40968;52.342;5.528;2024-02-21T03:00:15;101729.16;;;7.35;92.70
43161;BME280;40968;52.342;5.528;2024-02-21T03:02:43;101951.13;;;8.78;92.97
43161;BME280;40968;52.342;5.528;2024-02-21T03:05:12;101955.53;;;8.79;92.91
43161;BME280;40968;52.342;5.528;2024-02-21T03:07:40;101716.47;;;7.40;92.73
43161;BME280;40968;52.342;5.528;2024-02-21T03:10:07;101948.38;;;8.79;92.87
43161;BME280;40968;52.342;5.528;2024-02-21T03:12:34;101853.06;;;8.24;93.03
43161;BME280;40968;52.342;5.528;2024-02-21T03:15:02;101948.31;;;8.81;93.17
43161;BME280;40968;52.342;5.528;2024-02-21T03:17:29;101735.34;;;7.54;93.01
43161;BME280;40968;52.342;5.528;2024-02-21T03:19:57;101781.78;;;7.88;93.03
43161;BME280;40968;52.342;5.528;2024-02-21T03:22:24;101944.69;;;8.82;93.18
43161;BME280;40968;52.342;5.528;2024-02-21T03:24:50;101943.03;;;8.79;93.43
43161;BME280;40968;52.342;5.528;2024-02-21T03:27:17;101934.00;;;8.82;93.08
43161;BME280;40968;52.342;5.528;2024-02-21T03:29:43;101808.69;;;8.03;93.17
43161;BME280;40968;52.342;5.528;2024-02-21T03:32:11;101904.72;;;8.61;93.23
43161;BME280;40968;52.342;5.528;2024-02-21T03:34:38;101868.03;;;8.46;93.28
43161;BME280;40968;52.342;5.528;2024-02-21T03:37:04;101913.47;;;8.83;93.31
43161;BME280;40968;52.342;5.528;2024-02-21T03:39:31;101914.34;;;8.83;93.39
43161;BME280;40968;52.342;5.528;2024-02-21T03:41:58;101817.31;;;8.27;93.39
43161;BME280;40968;52.342;5.528;2024-02-21T03:44:26;101770.44;;;8.02;93.46
43161;BME280;40968;52.342;5.528;2024-02-21T03:46:52;101900.00;;;8.84;93.45
43161;BME280;40968;52.342;5.528;2024-02-21T03:49:20;101713.00;;;7.76;93.17
43161;BME280;40968;52.342;5.528;2024-02-21T03:51:47;101690.53;;;7.62;92.95
43161;BME280;40968;52.342;5.528;2024-02-21T03:54:14;101661.84;;;7.49;93.28
43161;BME280;40968;52.342;5.528;2024-02-21T03:56:40;101896.41;;;8.85;93.35
43161;BME280;40968;52.342;5.528;2024-02-21T03:59:07;101892.00;;;8.84;93.26
43161;BME280;40968;52.342;5.528;2024-02-21T04:01:34;101545.00;;;6.82;93.12
43161;BME280;40968;52.342;5.528;2024-02-21T04:04:01;101880.69;;;8.79;93.34
43161;BME280;40968;52.342;5.528;2024-02-21T04:06:28;101760.63;;;8.03;93.04
43161;BME280;40968;52.342;5.528;2024-02-21T04:08:56;101681.56;;;7.63;92.96
43161;BME280;40968;52.342;5.528;2024-02-21T04:11:23;101762.69;;;8.15;93.00
43161;BME280;40968;52.342;5.528;2024-02-21T04:13:50;101725.09;;;7.83;92.86
43161;BME280;40968;52.342;5.528;2024-02-21T04:16:16;101870.69;;;8.83;93.10
43161;BME280;40968;52.342;5.528;2024-02-21T04:18:43;101876.03;;;8.83;93.11
43161;BME280;40968;52.342;5.528;2024-02-21T04:21:10;101814.16;;;8.55;92.84
43161;BME280;40968;52.342;5.528;2024-02-21T04:23:38;101624.22;;;7.36;92.38
43161;BME280;40968;52.342;5.528;2024-02-21T04:26:04;101845.31;;;8.74;92.66
43161;BME280;40968;52.342;5.528;2024-02-21T04:28:31;101587.78;;;7.17;92.50
43161;BME280;40968;52.342;5.528;2024-02-21T04:30:58;101867.34;;;8.79;92.63
43161;BME280;40968;52.342;5.528;2024-02-21T04:33:24;101840.50;;;8.63;92.71
43161;BME280;40968;52.342;5.528;2024-02-21T04:35:51;101751.31;;;8.11;92.58
43161;BME280;40968;52.342;5.528;2024-02-21T04:38:20;101739.25;;;8.03;92.39
43161;BME280;40968;52.342;5.528;2024-02-21T04:40:48;101641.66;;;7.43;92.50
43161;BME280;40968;52.342;5.528;2024-02-21T04:43:14;101866.53;;;8.77;92.68
43161;BME280;40968;52.342;5.528;2024-02-21T04:45:41;101807.59;;;8.43;92.43
43161;BME280;40968;52.342;5.528;2024-02-21T04:48:08;101837.69;;;8.66;92.65
43161;BME280;40968;52.342;5.528;2024-02-21T04:50:34;101776.16;;;8.31;92.71
43161;BME280;40968;52.342;5.528;2024-02-21T04:53:01;101854.09;;;8.76;92.59
43161;BME280;40968;52.342;5.528;2024-02-21T04:55:27;101837.22;;;8.75;92.54
43161;BME280;40968;52.342;5.528;2024-02-21T04:57:55;101753.44;;;8.22;92.43
43161;BME280;40968;52.342;5.528;2024-02-21T05:00:22;101837.31;;;8.74;92.53
43161;BME280;40968;52.342;5.528;2024-02-21T05:02:49;101585.75;;;7.22;92.23
43161;BME280;40968;52.342;5.528;2024-02-21T05:05:16;101810.53;;;8.56;92.42
43161;BME280;40968;52.342;5.528;2024-02-21T05:07:42;101644.66;;;7.54;92.41
43161;BME280;40968;52.342;5.528;2024-02-21T05:10:09;101825.47;;;8.60;92.42
43161;BME280;40968;52.342;5.528;2024-02-21T05:12:36;101841.84;;;8.72;92.58
43161;BME280;40968;52.342;5.528;2024-02-21T05:15:05;101601.94;;;7.37;92.37
43161;BME280;40968;52.342;5.528;2024-02-21T05:17:31;101772.31;;;8.37;92.11
43161;BME280;40968;52.342;5.528;2024-02-21T05:19:58;101709.50;;;7.93;92.35
43161;BME280;40968;52.342;5.528;2024-02-21T05:22:25;101820.53;;;8.70;92.31
43161;BME280;40968;52.342;5.528;2024-02-21T05:24:51;101749.03;;;8.21;92.32
43161;BME280;40968;52.342;5.528;2024-02-21T05:27:18;101555.94;;;7.14;92.01
43161;BME280;40968;52.342;5.528;2024-02-21T05:29:44;101812.75;;;8.66;92.22
43161;BME280;40968;52.342;5.528;2024-02-21T05:32:12;101607.75;;;7.45;92.12
43161;BME280;40968;52.342;5.528;2024-02-21T05:34:39;101701.25;;;7.97;92.13
43161;BME280;40968;52.342;5.528;2024-02-21T05:37:05;101704.72;;;8.00;92.12
43161;BME280;40968;52.342;5.528;2024-02-21T05:39:32;101744.03;;;8.33;92.20
43161;BME280;40968;52.342;5.528;2024-02-21T05:41:58;101785.25;;;8.63;91.94
43161;BME280;40968;52.342;5.528;2024-02-21T05:44:25;101690.28;;;8.04;92.07
43161;BME280;40968;52.342;5.528;2024-02-21T05:46:52;101677.84;;;8.03;92.06
43161;BME280;40968;52.342;5.528;2024-02-21T05:49:20;101722.81;;;8.29;91.98
43161;BME280;40968;52.342;5.528;2024-02-21T05:51:46;101516.16;;;7.09;91.71
43161;BME280;40968;52.342;5.528;2024-02-21T05:54:13;101527.09;;;7.22;91.81
43161;BME280;40968;52.342;5.528;2024-02-21T05:56:44;101529.75;;;7.22;91.94
43161;BME280;40968;52.342;5.528;2024-02-21T05:59:10;101438.03;;;6.53;91.63
43161;BME280;40968;52.342;5.528;2024-02-21T06:01:37;101674.25;;;8.04;91.81
43161;BME280;40968;52.342;5.528;2024-02-21T06:04:04;101539.16;;;7.29;91.64
43161;BME280;40968;52.342;5.528;2024-02-21T06:06:32;101678.03;;;8.00;92.08
43161;BME280;40968;52.342;5.528;2024-02-21T06:08:59;101496.78;;;7.06;91.71
43161;BME280;40968;52.342;5.528;2024-02-21T06:11:27;101644.41;;;7.95;91.97
43161;BME280;40968;52.342;5.528;2024-02-21T06:13:54;101753.41;;;8.59;92.12
43161;BME280;40968;52.342;5.528;2024-02-21T06:16:21;101401.94;;;6.47;91.65
43161;BME280;40968;52.342;5.528;2024-02-21T06:18:48;101661.72;;;8.06;92.00
43161;BME280;40968;52.342;5.528;2024-02-21T06:21:14;101660.69;;;8.08;91.89
43161;BME280;40968;52.342;5.528;2024-02-21T06:23:43;101519.09;;;7.22;91.80
43161;BME280;40968;52.342;5.528;2024-02-21T06:26:09;101577.97;;;7.54;91.92
43161;BME280;40968;52.342;5.528;2024-02-21T06:28:36;101751.63;;;8.59;92.05
43161;BME280;40968;52.342;5.528;2024-02-21T06:31:03;101756.00;;;8.60;91.95
43161;BME280;40968;52.342;5.528;2024-02-21T06:33:30;101692.81;;;8.24;91.80
43161;BME280;40968;52.342;5.528;2024-02-21T06:35:56;101516.72;;;7.16;91.64
43161;BME280;40968;52.342;5.528;2024-02-21T06:38:23;101682.59;;;8.15;91.86
43161;BME280;40968;52.342;5.528;2024-02-21T06:40:51;101763.25;;;8.58;91.88
43161;BME280;40968;52.342;5.528;2024-02-21T06:43:20;101749.81;;;8.60;92.13
43161;BME280;40968;52.342;5.528;2024-02-21T06:45:47;101755.06;;;8.61;92.00
43161;BME280;40968;52.342;5.528;2024-02-21T06:48:16;101685.00;;;8.20;91.76
43161;BME280;40968;52.342;5.528;2024-02-21T06:50:43;101531.41;;;7.25;91.47
43161;BME280;40968;52.342;5.528;2024-02-21T06:53:09;101749.81;;;8.60;91.73
43161;BME280;40968;52.342;5.528;2024-02-21T06:55:36;101524.28;;;7.25;91.62
43161;BME280;40968;52.342;5.528;2024-02-21T06:58:04;101690.28;;;8.21;91.59
43161;BME280;40968;52.342;5.528;2024-02-21T07:00:33;101703.31;;;8.27;91.65
43161;BME280;40968;52.342;5.528;2024-02-21T07:03:00;101750.03;;;8.55;91.73
43161;BME280;40968;52.342;5.528;2024-02-21T07:05:27;101760.78;;;8.54;91.64
43161;BME280;40968;52.342;5.528;2024-02-21T07:07:54;101677.09;;;8.18;91.55
43161;BME280;40968;52.342;5.528;2024-02-21T07:10:21;101379.75;;;6.47;91.47
43161;BME280;40968;52.342;5.528;2024-02-21T07:12:47;101734.00;;;8.55;91.73
43161;BME280;40968;52.342;5.528;2024-02-21T07:15:15;101715.81;;;8.44;91.64
43161;BME280;40968;52.342;5.528;2024-02-21T07:17:42;101707.03;;;8.42;91.66
43161;BME280;40968;52.342;5.528;2024-02-21T07:20:09;101629.81;;;8.03;91.42
43161;BME280;40968;52.342;5.528;2024-02-21T07:22:36;101235.81;;;5.77;91.39
43161;BME280;40968;52.342;5.528;2024-02-21T07:25:03;101707.28;;;8.55;91.68
43161;BME280;40968;52.342;5.528;2024-02-21T07:27:29;101716.09;;;8.57;91.67
43161;BME280;40968;52.342;5.528;2024-02-21T07:29:57;101709.19;;;8.53;91.50
43161;BME280;40968;52.342;5.528;2024-02-21T07:32:25;101475.16;;;7.12;91.42
43161;BME280;40968;52.342;5.528;2024-02-21T07:34:51;101702.72;;;8.57;91.69
43161;BME280;40968;52.342;5.528;2024-02-21T07:37:18;101704.53;;;8.57;91.50
43161;BME280;40968;52.342;5.528;2024-02-21T07:39:45;101698.31;;;8.56;91.44
43161;BME280;40968;52.342;5.528;2024-02-21T07:42:11;101617.72;;;7.95;91.09
43161;BME280;40968;52.342;5.528;2024-02-21T07:44:38;101696.59;;;8.55;91.03
43161;BME280;40968;52.342;5.528;2024-02-21T07:47:04;101691.25;;;8.55;91.22
43161;BME280;40968;52.342;5.528;2024-02-21T07:49:40;101671.78;;;8.53;90.91
43161;BME280;40968;52.342;5.528;2024-02-21T07:52:07;101590.56;;;8.05;90.93
43161;BME280;40968;52.342;5.528;2024-02-21T07:54:34;101608.59;;;8.17;90.75
43161;BME280;40968;52.342;5.528;2024-02-21T07:57:00;101605.63;;;8.23;91.00
43161;BME280;40968;52.342;5.528;2024-02-21T07:59:28;101489.81;;;7.57;90.94
43161;BME280;40968;52.342;5.528;2024-02-21T08:01:56;101447.59;;;7.30;90.42
43161;BME280;40968;52.342;5.528;2024-02-21T08:04:22;101365.38;;;6.86;90.42
43161;BME280;40968;52.342;5.528;2024-02-21T08:06:52;101664.38;;;8.58;90.59
43161;BME280;40968;52.342;5.528;2024-02-21T08:09:21;101384.53;;;6.94;90.41
43161;BME280;40968;52.342;5.528;2024-02-21T08:11:48;101651.78;;;8.60;90.29
43161;BME280;40968;52.342;5.528;2024-02-21T08:14:15;101285.91;;;6.42;89.82
43161;BME280;40968;52.342;5.528;2024-02-21T08:16:42;101611.28;;;8.35;90.32
43161;BME280;40968;52.342;5.528;2024-02-21T08:19:09;101592.25;;;8.23;89.90
43161;BME280;40968;52.342;5.528;2024-02-21T08:21:35;101655.44;;;8.59;90.00
43161;BME280;40968;52.342;5.528;2024-02-21T08:24:04;101495.50;;;7.67;90.04
43161;BME280;40968;52.342;5.528;2024-02-21T08:26:31;101528.84;;;7.93;89.90
43161;BME280;40968;52.342;5.528;2024-02-21T08:28:57;101589.03;;;8.34;89.82
43161;BME280;40968;52.342;5.528;2024-02-21T08:31:25;101395.53;;;7.23;89.80
43161;BME280;40968;52.342;5.528;2024-02-21T08:33:56;101627.75;;;8.60;89.87
43161;BME280;40968;52.342;5.528;2024-02-21T08:36:27;101621.63;;;8.58;89.65
43161;BME280;40968;52.342;5.528;2024-02-21T08:38:54;101600.88;;;8.46;89.83
43161;BME280;40968;52.342;5.528;2024-02-21T08:41:22;101623.38;;;8.59;89.81
43161;BME280;40968;52.342;5.528;2024-02-21T08:43:49;101616.19;;;8.60;89.82
43161;BME280;40968;52.342;5.528;2024-02-21T08:46:16;101516.50;;;8.08;89.65
43161;BME280;40968;52.342;5.528;2024-02-21T08:48:43;101601.91;;;8.61;89.93
43161;BME280;40968;52.342;5.528;2024-02-21T08:51:11;101334.38;;;7.03;89.35
43161;BME280;40968;52.342;5.528;2024-02-21T08:53:38;101592.16;;;8.60;89.56
43161;BME280;40968;52.342;5.528;2024-02-21T08:56:05;101526.63;;;8.19;89.47
43161;BME280;40968;52.342;5.528;2024-02-21T08:58:34;101446.47;;;7.70;89.40
43161;BME280;40968;52.342;5.528;2024-02-21T09:01:02;101590.94;;;8.66;89.38
43161;BME280;40968;52.342;5.528;2024-02-21T09:03:31;101373.53;;;7.36;88.94
43161;BME280;40968;52.342;5.528;2024-02-21T09:05:57;101423.38;;;7.69;88.78
43161;BME280;40968;52.342;5.528;2024-02-21T09:08:24;101371.31;;;7.44;88.63
43161;BME280;40968;52.342;5.528;2024-02-21T09:10:51;101437.97;;;7.79;88.52
43161;BME280;40968;52.342;5.528;2024-02-21T09:13:17;101537.56;;;8.48;88.52
43161;BME280;40968;52.342;5.528;2024-02-21T09:15:45;101592.53;;;8.86;88.27
43161;BME280;40968;52.342;5.528;2024-02-21T09:18:12;101416.53;;;7.80;88.03
43161;BME280;40968;52.342;5.528;2024-02-21T09:20:38;101541.47;;;8.74;88.11
43161;BME280;40968;52.342;5.528;2024-02-21T09:23:05;101301.72;;;7.33;87.77
43161;BME280;40968;52.342;5.528;2024-02-21T09:25:31;101293.72;;;7.33;87.25
43161;BME280;40968;52.342;5.528;2024-02-21T09:27:58;101562.63;;;8.95;87.38
43161;BME280;40968;52.342;5.528;2024-02-21T09:30:24;101327.00;;;7.59;87.42
43161;BME280;40968;52.342;5.528;2024-02-21T09:32:52;101349.06;;;7.78;86.86
43161;BME280;40968;52.342;5.528;2024-02-21T09:35:19;101428.44;;;8.24;86.83
43161;BME280;40968;52.342;5.528;2024-02-21T09:37:48;101506.38;;;8.65;86.99
43161;BME280;40968;52.342;5.528;2024-02-21T09:40:15;101535.47;;;9.03;86.78
43161;BME280;40968;52.342;5.528;2024-02-21T09:42:42;101534.44;;;9.05;86.78
43161;BME280;40968;52.342;5.528;2024-02-21T09:45:18;101427.50;;;8.41;86.24
43161;BME280;40968;52.342;5.528;2024-02-21T09:47:52;101270.88;;;7.60;85.97
43161;BME280;40968;52.342;5.528;2024-02-21T09:50:28;101382.69;;;8.30;86.11
43161;BME280;40968;52.342;5.528;2024-02-21T09:52:55;101447.69;;;8.79;85.84
43161;BME280;40968;52.342;5.528;2024-02-21T09:55:25;101254.69;;;7.63;85.21
43161;BME280;40968;52.342;5.528;2024-02-21T09:57:53;101271.41;;;7.83;85.18
43161;BME280;40968;52.342;5.528;2024-02-21T10:00:20;101495.31;;;9.19;85.05
43161;BME280;40968;52.342;5.528;2024-02-21T10:02:48;101439.38;;;9.00;84.83
43161;BME280;40968;52.342;5.528;2024-02-21T10:05:15;101239.22;;;7.86;84.44
43161;BME280;40968;52.342;5.528;2024-02-21T10:07:44;101413.66;;;8.97;84.12
43161;BME280;40968;52.342;5.528;2024-02-21T10:10:11;101407.81;;;8.90;83.64
43161;BME280;40968;52.342;5.528;2024-02-21T10:12:48;101460.88;;;9.28;83.84
43161;BME280;40968;52.342;5.528;2024-02-21T10:15:19;101246.19;;;8.05;83.56
43161;BME280;40968;52.342;5.528;2024-02-21T10:17:46;101451.91;;;9.29;83.10
43161;BME280;40968;52.342;5.528;2024-02-21T10:20:13;101446.28;;;9.34;83.17
43161;BME280;40968;52.342;5.528;2024-02-21T10:22:41;101406.56;;;9.12;82.74
43161;BME280;40968;52.342;5.528;2024-02-21T10:25:10;101452.69;;;9.32;82.32
43161;BME280;40968;52.342;5.528;2024-02-21T10:27:37;101440.06;;;9.34;82.61
43161;BME280;40968;52.342;5.528;2024-02-21T10:30:05;101411.47;;;9.20;82.42
43161;BME280;40968;52.342;5.528;2024-02-21T10:32:32;101195.06;;;7.96;81.99
43161;BME280;40968;52.342;5.528;2024-02-21T10:35:03;101361.25;;;8.94;82.08
43161;BME280;40968;52.342;5.528;2024-02-21T10:37:31;101197.00;;;8.09;81.91
43161;BME280;40968;52.342;5.528;2024-02-21T10:39:57;101367.81;;;9.19;81.79
43161;BME280;40968;52.342;5.528;2024-02-21T10:42:29;101336.47;;;9.07;81.44
43161;BME280;40968;52.342;5.528;2024-02-21T10:45:00;101398.53;;;9.42;81.51
43161;BME280;40968;52.342;5.528;2024-02-21T10:47:32;101355.47;;;9.17;81.19
43161;BME280;40968;52.342;5.528;2024-02-21T10:50:02;101150.44;;;7.99;81.13
43161;BME280;40968;52.342;5.528;2024-02-21T10:52:37;101400.72;;;9.50;81.47
43161;BME280;40968;52.342;5.528;2024-02-21T10:55:10;101419.56;;;9.49;80.57
43161;BME280;40968;52.342;5.528;2024-02-21T10:57:41;101372.63;;;9.43;80.44
43161;BME280;40968;52.342;5.528;2024-02-21T11:00:09;101381.22;;;9.48;80.72
43161;BME280;40968;52.342;5.528;2024-02-21T11:02:38;101332.88;;;9.22;80.52
43161;BME280;40968;52.342;5.528;2024-02-21T11:05:06;101379.50;;;9.47;80.46
43161;BME280;40968;52.342;5.528;2024-02-21T11:07:36;101340.81;;;9.38;80.68
43161;BME280;40968;52.342;5.528;2024-02-21T11:10:04;101345.41;;;9.51;80.79
43161;BME280;40968;52.342;5.528;2024-02-21T11:12:33;101281.47;;;9.17;80.26
43161;BME280;40968;52.342;5.528;2024-02-21T11:15:07;101131.75;;;8.43;80.05
43161;BME280;40968;52.342;5.528;2024-02-21T11:17:33;101251.97;;;9.33;80.25
43161;BME280;40968;52.342;5.528;2024-02-21T11:20:10;101224.91;;;9.23;80.21
43161;BME280;40968;52.342;5.528;2024-02-21T11:22:41;101076.22;;;8.34;79.90
43161;BME280;40968;52.342;5.528;2024-02-21T11:25:08;101229.69;;;9.18;80.10
43161;BME280;40968;52.342;5.528;2024-02-21T11:27:37;101249.63;;;8.98;80.19
43161;BME280;40968;52.342;5.528;2024-02-21T11:30:06;101209.63;;;8.82;80.28
43161;BME280;40968;52.342;5.528;2024-02-21T11:32:35;101352.75;;;9.61;80.40
43161;BME280;40968;52.342;5.528;2024-02-21T11:35:03;101333.16;;;9.61;80.58
43161;BME280;40968;52.342;5.528;2024-02-21T11:37:31;101227.56;;;8.94;80.29
43161;BME280;40968;52.342;5.528;2024-02-21T11:39:59;101000.88;;;7.55;80.60
43161;BME280;40968;52.342;5.528;2024-02-21T11:42:27;101312.22;;;9.53;80.82
43161;BME280;40968;52.342;5.528;2024-02-21T11:44:54;101089.47;;;8.21;80.69
43161;BME280;40968;52.342;5.528;2024-02-21T11:47:23;101291.78;;;9.52;81.08
43161;BME280;40968;52.342;5.528;2024-02-21T11:49:50;101296.28;;;9.52;81.34
43161;BME280;40968;52.342;5.528;2024-02-21T11:52:19;101283.00;;;9.50;81.46
43161;BME280;40968;52.342;5.528;2024-02-21T11:54:50;101275.94;;;9.49;81.63
43161;BME280;40968;52.342;5.528;2024-02-21T11:57:17;100949.06;;;7.59;81.54
43161;BME280;40968;52.342;5.528;2024-02-21T11:59:44;101193.88;;;8.92;81.73
43161;BME280;40968;52.342;5.528;2024-02-21T12:02:11;101221.50;;;9.21;81.17
43161;BME280;40968;52.342;5.528;2024-02-21T12:04:39;101265.50;;;9.44;81.17
43161;BME280;40968;52.342;5.528;2024-02-21T12:07:06;101253.22;;;9.42;81.23
43161;BME280;40968;52.342;5.528;2024-02-21T12:09:34;101066.50;;;8.33;81.24
43161;BME280;40968;52.342;5.528;2024-02-21T12:12:02;101229.13;;;9.42;81.44
43161;BME280;40968;52.342;5.528;2024-02-21T12:14:31;101142.78;;;9.11;81.48
43161;BME280;40968;52.342;5.528;2024-02-21T12:16:58;101059.38;;;8.77;81.82
43161;BME280;40968;52.342;5.528;2024-02-21T12:19:25;100947.59;;;8.13;81.35
43161;BME280;40968;52.342;5.528;2024-02-21T12:21:53;101151.97;;;9.63;81.67
43161;BME280;40968;52.342;5.528;2024-02-21T12:24:22;101138.38;;;9.66;81.24
43161;BME280;40968;52.342;5.528;2024-02-21T12:26:49;101147.81;;;9.72;81.31
43161;BME280;40968;52.342;5.528;2024-02-21T12:29:17;101021.25;;;9.02;81.22
43161;BME280;40968;52.342;5.528;2024-02-21T12:31:44;101007.78;;;9.04;80.91
43161;BME280;40968;52.342;5.528;2024-02-21T12:34:10;100909.22;;;8.57;80.84
43161;BME280;40968;52.342;5.528;2024-02-21T12:36:41;101122.41;;;9.92;80.87
43161;BME280;40968;52.342;5.528;2024-02-21T12:39:09;101074.34;;;9.63;80.20
43161;BME280;40968;52.342;5.528;2024-02-21T12:41:36;101115.00;;;9.95;79.90
43161;BME280;40968;52.342;5.528;2024-02-21T12:44:04;101108.16;;;9.91;79.24
43161;BME280;40968;52.342;5.528;2024-02-21T12:46:32;100959.88;;;9.01;79.06
43161;BME280;40968;52.342;5.528;2024-02-21T12:48:58;101039.19;;;9.55;79.33
43161;BME280;40968;52.342;5.528;2024-02-21T12:51:25;101087.91;;;9.87;79.53
43161;BME280;40968;52.342;5.528;2024-02-21T12:53:52;101074.63;;;9.86;79.20
43161;BME280;40968;52.342;5.528;2024-02-21T12:56:20;101058.75;;;9.70;79.20
43161;BME280;40968;52.342;5.528;2024-02-21T12:58:46;100977.09;;;9.37;79.31
43161;BME280;40968;52.342;5.528;2024-02-21T13:01:13;101006.91;;;9.58;79.13